sensor_id;sensor_type;location;lat;lon;timestamp;P1;durP1;ratioP1;P2;durP2;ratioP2
38851;SDS011;24605;50.092;9.182;2022-11-25T00:02:20;14.38;;;2.60;;
38851;SDS011;24605;50.092;9.182;2022-11-25T00:04:46;14.48;;;2.63;;
38851;SDS011;24605;50.092;9.182;2022-11-25T00:07:13;16.23;;;3.45;;
38851;SDS011;24605;50.092;9.182;2022-11-25T00:09:40;12.77;;;2.65;;
38851;SDS011;24605;50.092;9.182;2022-11-25T00:12:08;14.73;;;2.60;;
38851;SDS011;24605;50.092;9.182;2022-11-25T00:14:34;24.30;;;2.95;;
38851;SDS011;24605;50.092;9.182;2022-11-25T00:17:01;16.23;;;2.55;;
38851;SDS011;24605;50.092;9.182;2022-11-25T00:19:27;11.57;;;2.63;;
38851;SDS011;24605;50.092;9.182;2022-11-25T00:21:53;15.65;;;2.72;;
38851;SDS011;24605;50.092;9.182;2022-11-25T00:24:20;11.95;;;2.47;;
38851;SDS011;24605;50.092;9.182;2022-11-25T00:26:46;14.77;;;2.92;;
38851;SDS011;24605;50.092;9.182;2022-11-25T00:29:14;11.68;;;2.88;;
38851;SDS011;24605;50.092;9.182;2022-11-25T00:31:41;16.17;;;2.90;;
38851;SDS011;24605;50.092;9.182;2022-11-25T00:34:09;14.98;;;3.42;;
38851;SDS011;24605;50.092;9.182;2022-11-25T00:36:37;18.50;;;3.00;;
38851;SDS011;24605;50.092;9.182;2022-11-25T00:39:04;16.80;;;3.58;;
38851;SDS011;24605;50.092;9.182;2022-11-25T00:41:32;16.33;;;3.03;;
38851;SDS011;24605;50.092;9.182;2022-11-25T00:44:25;15.13;;;3.00;;
38851;SDS011;24605;50.092;9.182;2022-11-25T00:47:01;11.85;;;2.97;;
38851;SDS011;24605;50.092;9.182;2022-11-25T00:49:28;11.68;;;2.78;;
38851;SDS011;24605;50.092;9.182;2022-11-25T00:51:55;19.80;;;2.88;;
38851;SDS011;24605;50.092;9.182;2022-11-25T00:54:21;9.05;;;2.67;;
38851;SDS011;24605;50.092;9.182;2022-11-25T00:56:48;12.82;;;2.58;;
38851;SDS011;24605;50.092;9.182;2022-11-25T00:59:15;11.75;;;2.45;;
38851;SDS011;24605;50.092;9.182;2022-11-25T01:01:43;14.13;;;2.70;;
38851;SDS011;24605;50.092;9.182;2022-11-25T01:04:09;13.98;;;2.90;;
38851;SDS011;24605;50.092;9.182;2022-11-25T01:06:36;14.95;;;3.08;;
38851;SDS011;24605;50.092;9.182;2022-11-25T01:09:04;14.25;;;3.00;;
38851;SDS011;24605;50.092;9.182;2022-11-25T01:11:31;20.55;;;3.15;;
38851;SDS011;24605;50.092;9.182;2022-11-25T01:13:58;14.57;;;2.90;;
38851;SDS011;24605;50.092;9.182;2022-11-25T01:16:25;18.55;;;3.35;;
38851;SDS011;24605;50.092;9.182;2022-11-25T01:18:53;10.80;;;2.67;;
38851;SDS011;24605;50.092;9.182;2022-11-25T01:21:20;14.65;;;3.05;;
38851;SDS011;24605;50.092;9.182;2022-11-25T01:23:48;14.35;;;2.40;;
38851;SDS011;24605;50.092;9.182;2022-11-25T01:26:15;18.50;;;2.92;;
38851;SDS011;24605;50.092;9.182;2022-11-25T01:28:44;15.98;;;3.20;;
38851;SDS011;24605;50.092;9.182;2022-11-25T01:31:11;14.45;;;2.30;;
38851;SDS011;24605;50.092;9.182;2022-11-25T01:33:39;16.70;;;3.67;;
38851;SDS011;24605;50.092;9.182;2022-11-25T01:36:09;12.88;;;2.83;;
38851;SDS011;24605;50.092;9.182;2022-11-25T01:38:37;12.18;;;2.30;;
38851;SDS011;24605;50.092;9.182;2022-11-25T01:41:04;12.82;;;2.30;;
38851;SDS011;24605;50.092;9.182;2022-11-25T01:43:32;13.80;;;2.63;;
38851;SDS011;24605;50.092;9.182;2022-11-25T01:46:00;11.95;;;2.40;;
38851;SDS011;24605;50.092;9.182;2022-11-25T01:48:34;9.40;;;2.60;;
38851;SDS011;24605;50.092;9.182;2022-11-25T01:51:04;11.43;;;2.85;;
38851;SDS011;24605;50.092;9.182;2022-11-25T01:53:43;11.55;;;2.80;;
38851;SDS011;24605;50.092;9.182;2022-11-25T01:56:09;11.63;;;2.58;;
38851;SDS011;24605;50.092;9.182;2022-11-25T01:58:36;16.50;;;3.47;;
38851;SDS011;24605;50.092;9.182;2022-11-25T02:01:04;16.52;;;2.95;;
38851;SDS011;24605;50.092;9.182;2022-11-25T02:03:31;15.05;;;2.75;;
38851;SDS011;24605;50.092;9.182;2022-11-25T02:06:02;7.53;;;2.55;;
38851;SDS011;24605;50.092;9.182;2022-11-25T02:08:34;17.57;;;3.20;;
38851;SDS011;24605;50.092;9.182;2022-11-25T02:11:02;16.70;;;2.83;;
38851;SDS011;24605;50.092;9.182;2022-11-25T02:13:28;27.25;;;3.42;;
38851;SDS011;24605;50.092;9.182;2022-11-25T02:15:56;33.78;;;3.55;;
38851;SDS011;24605;50.092;9.182;2022-11-25T02:18:23;17.15;;;3.08;;
38851;SDS011;24605;50.092;9.182;2022-11-25T02:20:51;15.45;;;3.30;;
38851;SDS011;24605;50.092;9.182;2022-11-25T02:23:18;13.05;;;2.80;;
38851;SDS011;24605;50.092;9.182;2022-11-25T02:25:54;17.80;;;3.17;;
38851;SDS011;24605;50.092;9.182;2022-11-25T02:28:21;15.27;;;3.15;;
38851;SDS011;24605;50.092;9.182;2022-11-25T02:30:49;16.88;;;3.15;;
38851;SDS011;24605;50.092;9.182;2022-11-25T02:33:16;14.43;;;3.30;;
38851;SDS011;24605;50.092;9.182;2022-11-25T02:35:45;20.92;;;3.80;;
38851;SDS011;24605;50.092;9.182;2022-11-25T02:38:14;14.50;;;3.40;;
38851;SDS011;24605;50.092;9.182;2022-11-25T02:40:44;13.60;;;2.63;;
38851;SDS011;24605;50.092;9.182;2022-11-25T02:43:16;11.65;;;2.25;;
38851;SDS011;24605;50.092;9.182;2022-11-25T02:45:47;18.30;;;2.83;;
38851;SDS011;24605;50.092;9.182;2022-11-25T02:48:17;14.25;;;3.40;;
38851;SDS011;24605;50.092;9.182;2022-11-25T02:50:44;17.23;;;2.97;;
38851;SDS011;24605;50.092;9.182;2022-11-25T02:53:10;14.88;;;2.70;;
38851;SDS011;24605;50.092;9.182;2022-11-25T02:55:37;20.13;;;3.20;;
38851;SDS011;24605;50.092;9.182;2022-11-25T02:58:03;18.55;;;3.25;;
38851;SDS011;24605;50.092;9.182;2022-11-25T03:00:31;14.10;;;3.10;;
38851;SDS011;24605;50.092;9.182;2022-11-25T03:02:58;22.80;;;2.92;;
38851;SDS011;24605;50.092;9.182;2022-11-25T03:05:25;12.88;;;3.15;;
38851;SDS011;24605;50.092;9.182;2022-11-25T03:07:52;19.90;;;3.00;;
38851;SDS011;24605;50.092;9.182;2022-11-25T03:10:18;17.10;;;3.13;;
38851;SDS011;24605;50.092;9.182;2022-11-25T03:12:45;14.95;;;2.78;;
38851;SDS011;24605;50.092;9.182;2022-11-25T03:15:12;21.05;;;4.45;;
38851;SDS011;24605;50.092;9.182;2022-11-25T03:17:40;12.82;;;3.03;;
38851;SDS011;24605;50.092;9.182;2022-11-25T03:20:06;12.50;;;2.83;;
38851;SDS011;24605;50.092;9.182;2022-11-25T03:22:34;17.60;;;2.58;;
38851;SDS011;24605;50.092;9.182;2022-11-25T03:25:00;16.33;;;2.65;;
38851;SDS011;24605;50.092;9.182;2022-11-25T03:27:27;20.88;;;3.40;;
38851;SDS011;24605;50.092;9.182;2022-11-25T03:29:53;17.02;;;2.90;;
38851;SDS011;24605;50.092;9.182;2022-11-25T03:32:20;17.67;;;2.83;;
38851;SDS011;24605;50.092;9.182;2022-11-25T03:34:47;15.57;;;2.58;;
38851;SDS011;24605;50.092;9.182;2022-11-25T03:37:14;16.27;;;3.03;;
38851;SDS011;24605;50.092;9.182;2022-11-25T03:39:40;14.75;;;3.15;;
38851;SDS011;24605;50.092;9.182;2022-11-25T03:42:07;15.13;;;2.90;;
38851;SDS011;24605;50.092;9.182;2022-11-25T03:44:33;11.43;;;2.28;;
38851;SDS011;24605;50.092;9.182;2022-11-25T03:47:00;13.38;;;2.92;;
38851;SDS011;24605;50.092;9.182;2022-11-25T03:49:26;11.75;;;2.65;;
38851;SDS011;24605;50.092;9.182;2022-11-25T03:51:54;14.90;;;2.65;;
38851;SDS011;24605;50.092;9.182;2022-11-25T03:54:21;12.63;;;2.58;;
38851;SDS011;24605;50.092;9.182;2022-11-25T03:56:47;12.05;;;3.00;;
38851;SDS011;24605;50.092;9.182;2022-11-25T03:59:14;12.82;;;2.67;;
38851;SDS011;24605;50.092;9.182;2022-11-25T04:01:40;20.02;;;2.70;;
38851;SDS011;24605;50.092;9.182;2022-11-25T04:04:07;14.00;;;2.50;;
38851;SDS011;24605;50.092;9.182;2022-11-25T04:06:33;13.93;;;2.72;;
38851;SDS011;24605;50.092;9.182;2022-11-25T04:09:01;14.85;;;2.90;;
38851;SDS011;24605;50.092;9.182;2022-11-25T04:11:27;9.40;;;2.40;;
38851;SDS011;24605;50.092;9.182;2022-11-25T04:14:08;11.07;;;2.70;;
38851;SDS011;24605;50.092;9.182;2022-11-25T04:16:34;15.90;;;3.13;;
38851;SDS011;24605;50.092;9.182;2022-11-25T04:19:01;14.68;;;2.90;;
38851;SDS011;24605;50.092;9.182;2022-11-25T04:21:27;15.95;;;2.92;;
38851;SDS011;24605;50.092;9.182;2022-11-25T04:23:53;16.10;;;3.83;;
38851;SDS011;24605;50.092;9.182;2022-11-25T04:26:21;13.98;;;3.13;;
38851;SDS011;24605;50.092;9.182;2022-11-25T04:28:48;15.13;;;3.63;;
38851;SDS011;24605;50.092;9.182;2022-11-25T04:31:14;21.70;;;4.50;;
38851;SDS011;24605;50.092;9.182;2022-11-25T04:33:41;23.42;;;4.32;;
38851;SDS011;24605;50.092;9.182;2022-11-25T04:36:07;17.20;;;5.10;;
38851;SDS011;24605;50.092;9.182;2022-11-25T04:38:34;21.05;;;4.82;;
38851;SDS011;24605;50.092;9.182;2022-11-25T04:41:00;22.00;;;4.40;;
38851;SDS011;24605;50.092;9.182;2022-11-25T04:43:28;21.17;;;4.00;;
38851;SDS011;24605;50.092;9.182;2022-11-25T04:45:55;14.85;;;3.10;;
38851;SDS011;24605;50.092;9.182;2022-11-25T04:48:22;14.25;;;3.25;;
38851;SDS011;24605;50.092;9.182;2022-11-25T04:50:48;14.68;;;3.17;;
38851;SDS011;24605;50.092;9.182;2022-11-25T04:53:15;11.48;;;3.15;;
38851;SDS011;24605;50.092;9.182;2022-11-25T04:55:41;13.30;;;2.78;;
38851;SDS011;24605;50.092;9.182;2022-11-25T04:58:08;16.05;;;2.63;;
38851;SDS011;24605;50.092;9.182;2022-11-25T05:00:36;14.60;;;2.75;;
38851;SDS011;24605;50.092;9.182;2022-11-25T05:03:02;15.30;;;3.00;;
38851;SDS011;24605;50.092;9.182;2022-11-25T05:05:29;11.30;;;2.60;;
38851;SDS011;24605;50.092;9.182;2022-11-25T05:07:55;12.18;;;3.00;;
38851;SDS011;24605;50.092;9.182;2022-11-25T05:10:22;11.45;;;2.65;;
38851;SDS011;24605;50.092;9.182;2022-11-25T05:12:48;10.10;;;2.63;;
38851;SDS011;24605;50.092;9.182;2022-11-25T05:15:15;22.35;;;3.28;;
38851;SDS011;24605;50.092;9.182;2022-11-25T05:17:43;17.75;;;3.17;;
38851;SDS011;24605;50.092;9.182;2022-11-25T05:20:10;15.43;;;2.92;;
38851;SDS011;24605;50.092;9.182;2022-11-25T05:22:37;14.48;;;3.00;;
38851;SDS011;24605;50.092;9.182;2022-11-25T05:25:03;19.70;;;3.08;;
38851;SDS011;24605;50.092;9.182;2022-11-25T05:27:30;13.30;;;3.25;;
38851;SDS011;24605;50.092;9.182;2022-11-25T05:29:57;18.48;;;3.55;;
38851;SDS011;24605;50.092;9.182;2022-11-25T05:32:23;17.48;;;3.00;;
38851;SDS011;24605;50.092;9.182;2022-11-25T05:34:51;27.50;;;5.53;;
38851;SDS011;24605;50.092;9.182;2022-11-25T05:37:18;31.58;;;5.78;;
38851;SDS011;24605;50.092;9.182;2022-11-25T05:39:44;33.15;;;7.07;;
38851;SDS011;24605;50.092;9.182;2022-11-25T05:42:10;29.42;;;6.43;;
38851;SDS011;24605;50.092;9.182;2022-11-25T05:44:37;24.98;;;5.28;;
38851;SDS011;24605;50.092;9.182;2022-11-25T05:47:03;11.68;;;3.15;;
38851;SDS011;24605;50.092;9.182;2022-11-25T05:49:30;12.05;;;2.78;;
38851;SDS011;24605;50.092;9.182;2022-11-25T05:51:57;12.48;;;3.08;;
38851;SDS011;24605;50.092;9.182;2022-11-25T05:54:25;11.95;;;2.40;;
38851;SDS011;24605;50.092;9.182;2022-11-25T05:56:51;20.00;;;3.40;;
38851;SDS011;24605;50.092;9.182;2022-11-25T05:59:18;13.13;;;3.30;;
38851;SDS011;24605;50.092;9.182;2022-11-25T06:01:45;12.70;;;2.60;;
38851;SDS011;24605;50.092;9.182;2022-11-25T06:04:11;13.88;;;2.53;;
38851;SDS011;24605;50.092;9.182;2022-11-25T06:06:38;14.63;;;3.00;;
38851;SDS011;24605;50.092;9.182;2022-11-25T06:09:05;14.23;;;2.95;;
38851;SDS011;24605;50.092;9.182;2022-11-25T06:11:32;12.35;;;3.33;;
38851;SDS011;24605;50.092;9.182;2022-11-25T06:13:58;14.82;;;3.55;;
38851;SDS011;24605;50.092;9.182;2022-11-25T06:16:25;20.10;;;3.00;;
38851;SDS011;24605;50.092;9.182;2022-11-25T06:18:52;22.33;;;3.20;;
38851;SDS011;24605;50.092;9.182;2022-11-25T06:21:19;11.90;;;3.20;;
38851;SDS011;24605;50.092;9.182;2022-11-25T06:23:45;12.85;;;3.85;;
38851;SDS011;24605;50.092;9.182;2022-11-25T06:26:14;14.20;;;4.30;;
38851;SDS011;24605;50.092;9.182;2022-11-25T06:28:42;14.27;;;4.13;;
38851;SDS011;24605;50.092;9.182;2022-11-25T06:31:10;15.88;;;3.47;;
38851;SDS011;24605;50.092;9.182;2022-11-25T06:33:38;13.80;;;3.70;;
38851;SDS011;24605;50.092;9.182;2022-11-25T06:36:05;12.35;;;3.42;;
38851;SDS011;24605;50.092;9.182;2022-11-25T06:38:34;14.70;;;5.22;;
38851;SDS011;24605;50.092;9.182;2022-11-25T06:41:00;20.42;;;5.38;;
38851;SDS011;24605;50.092;9.182;2022-11-25T06:43:29;15.48;;;4.38;;
38851;SDS011;24605;50.092;9.182;2022-11-25T06:46:00;10.98;;;3.90;;
38851;SDS011;24605;50.092;9.182;2022-11-25T06:48:28;12.05;;;4.40;;
38851;SDS011;24605;50.092;9.182;2022-11-25T06:50:55;16.42;;;3.97;;
38851;SDS011;24605;50.092;9.182;2022-11-25T06:53:22;15.43;;;4.88;;
38851;SDS011;24605;50.092;9.182;2022-11-25T06:55:55;16.50;;;5.10;;
38851;SDS011;24605;50.092;9.182;2022-11-25T06:58:26;17.13;;;6.00;;
38851;SDS011;24605;50.092;9.182;2022-11-25T07:00:58;31.55;;;11.20;;
38851;SDS011;24605;50.092;9.182;2022-11-25T07:03:25;16.05;;;5.35;;
38851;SDS011;24605;50.092;9.182;2022-11-25T07:05:54;15.65;;;3.90;;
38851;SDS011;24605;50.092;9.182;2022-11-25T07:08:21;16.10;;;3.90;;
38851;SDS011;24605;50.092;9.182;2022-11-25T07:10:48;22.33;;;5.07;;
38851;SDS011;24605;50.092;9.182;2022-11-25T07:13:14;17.73;;;4.07;;
38851;SDS011;24605;50.092;9.182;2022-11-25T07:15:42;19.52;;;3.15;;
38851;SDS011;24605;50.092;9.182;2022-11-25T07:18:09;12.38;;;2.78;;
38851;SDS011;24605;50.092;9.182;2022-11-25T07:20:35;16.30;;;5.28;;
38851;SDS011;24605;50.092;9.182;2022-11-25T07:23:02;17.02;;;5.57;;
38851;SDS011;24605;50.092;9.182;2022-11-25T07:25:29;21.25;;;5.15;;
38851;SDS011;24605;50.092;9.182;2022-11-25T07:27:56;19.10;;;6.53;;
38851;SDS011;24605;50.092;9.182;2022-11-25T07:30:22;15.90;;;7.45;;
38851;SDS011;24605;50.092;9.182;2022-11-25T07:32:50;19.13;;;5.57;;
38851;SDS011;24605;50.092;9.182;2022-11-25T07:35:17;16.83;;;5.53;;
38851;SDS011;24605;50.092;9.182;2022-11-25T07:37:43;11.95;;;3.35;;
38851;SDS011;24605;50.092;9.182;2022-11-25T07:40:11;12.73;;;3.38;;
38851;SDS011;24605;50.092;9.182;2022-11-25T07:42:38;12.10;;;2.90;;
38851;SDS011;24605;50.092;9.182;2022-11-25T07:45:04;16.88;;;3.38;;
38851;SDS011;24605;50.092;9.182;2022-11-25T07:47:32;10.23;;;3.00;;
38851;SDS011;24605;50.092;9.182;2022-11-25T07:50:01;12.85;;;2.92;;
38851;SDS011;24605;50.092;9.182;2022-11-25T07:52:27;10.43;;;2.50;;
38851;SDS011;24605;50.092;9.182;2022-11-25T07:54:53;9.65;;;2.22;;
38851;SDS011;24605;50.092;9.182;2022-11-25T07:57:20;15.82;;;2.47;;
38851;SDS011;24605;50.092;9.182;2022-11-25T07:59:46;7.68;;;2.72;;
38851;SDS011;24605;50.092;9.182;2022-11-25T08:02:13;8.60;;;2.22;;
38851;SDS011;24605;50.092;9.182;2022-11-25T08:04:39;13.25;;;2.85;;
38851;SDS011;24605;50.092;9.182;2022-11-25T08:07:09;15.40;;;2.65;;
38851;SDS011;24605;50.092;9.182;2022-11-25T08:09:35;9.73;;;2.88;;
38851;SDS011;24605;50.092;9.182;2022-11-25T08:12:02;16.73;;;3.17;;
38851;SDS011;24605;50.092;9.182;2022-11-25T08:14:28;13.07;;;2.20;;
38851;SDS011;24605;50.092;9.182;2022-11-25T08:16:55;13.57;;;2.70;;
38851;SDS011;24605;50.092;9.182;2022-11-25T08:19:21;11.80;;;2.63;;
38851;SDS011;24605;50.092;9.182;2022-11-25T08:21:48;12.05;;;2.53;;
38851;SDS011;24605;50.092;9.182;2022-11-25T08:24:16;9.50;;;2.30;;
38851;SDS011;24605;50.092;9.182;2022-11-25T08:26:44;8.90;;;2.22;;
38851;SDS011;24605;50.092;9.182;2022-11-25T08:29:12;11.45;;;2.15;;
38851;SDS011;24605;50.092;9.182;2022-11-25T08:31:40;12.13;;;2.22;;
38851;SDS011;24605;50.092;9.182;2022-11-25T08:34:07;6.57;;;1.80;;
38851;SDS011;24605;50.092;9.182;2022-11-25T08:36:35;9.10;;;2.40;;
38851;SDS011;24605;50.092;9.182;2022-11-25T08:39:03;14.98;;;4.63;;
38851;SDS011;24605;50.092;9.182;2022-11-25T08:41:33;24.05;;;8.18;;
38851;SDS011;24605;50.092;9.182;2022-11-25T08:44:03;8.68;;;3.15;;
38851;SDS011;24605;50.092;9.182;2022-11-25T08:46:31;11.70;;;2.33;;
38851;SDS011;24605;50.092;9.182;2022-11-25T08:49:00;11.02;;;2.33;;
38851;SDS011;24605;50.092;9.182;2022-11-25T08:51:27;7.68;;;2.05;;
38851;SDS011;24605;50.092;9.182;2022-11-25T08:53:55;6.13;;;1.95;;
38851;SDS011;24605;50.092;9.182;2022-11-25T08:56:23;6.57;;;2.22;;
38851;SDS011;24605;50.092;9.182;2022-11-25T08:58:51;7.43;;;1.80;;
38851;SDS011;24605;50.092;9.182;2022-11-25T09:01:18;10.23;;;1.90;;
38851;SDS011;24605;50.092;9.182;2022-11-25T09:03:47;10.23;;;2.13;;
38851;SDS011;24605;50.092;9.182;2022-11-25T09:06:16;10.43;;;1.85;;
38851;SDS011;24605;50.092;9.182;2022-11-25T09:08:43;8.77;;;1.90;;
38851;SDS011;24605;50.092;9.182;2022-11-25T09:11:10;6.35;;;1.67;;
38851;SDS011;24605;50.092;9.182;2022-11-25T09:13:37;8.98;;;2.08;;
38851;SDS011;24605;50.092;9.182;2022-11-25T09:16:05;6.82;;;1.70;;
38851;SDS011;24605;50.092;9.182;2022-11-25T09:18:32;9.63;;;2.08;;
38851;SDS011;24605;50.092;9.182;2022-11-25T09:21:05;7.57;;;2.20;;
38851;SDS011;24605;50.092;9.182;2022-11-25T09:23:34;12.30;;;3.13;;
38851;SDS011;24605;50.092;9.182;2022-11-25T09:26:02;12.85;;;5.60;;
38851;SDS011;24605;50.092;9.182;2022-11-25T09:28:29;7.00;;;2.63;;
38851;SDS011;24605;50.092;9.182;2022-11-25T09:30:56;9.00;;;2.20;;
38851;SDS011;24605;50.092;9.182;2022-11-25T09:33:23;7.10;;;1.80;;
38851;SDS011;24605;50.092;9.182;2022-11-25T09:35:50;7.80;;;3.20;;
38851;SDS011;24605;50.092;9.182;2022-11-25T09:38:16;16.77;;;7.78;;
38851;SDS011;24605;50.092;9.182;2022-11-25T09:40:44;6.35;;;1.70;;
38851;SDS011;24605;50.092;9.182;2022-11-25T09:43:18;6.40;;;1.90;;
38851;SDS011;24605;50.092;9.182;2022-11-25T09:46:12;7.03;;;1.88;;
38851;SDS011;24605;50.092;9.182;2022-11-25T09:49:07;6.88;;;1.50;;
38851;SDS011;24605;50.092;9.182;2022-11-25T09:51:47;16.08;;;6.25;;
38851;SDS011;24605;50.092;9.182;2022-11-25T09:54:22;9.20;;;3.10;;
38851;SDS011;24605;50.092;9.182;2022-11-25T09:56:54;12.07;;;2.85;;
38851;SDS011;24605;50.092;9.182;2022-11-25T09:59:27;8.07;;;1.73;;
38851;SDS011;24605;50.092;9.182;2022-11-25T10:02:01;7.47;;;2.10;;
38851;SDS011;24605;50.092;9.182;2022-11-25T10:04:40;8.27;;;2.72;;
38851;SDS011;24605;50.092;9.182;2022-11-25T10:07:13;11.30;;;2.88;;
38851;SDS011;24605;50.092;9.182;2022-11-25T10:12:17;6.03;;;1.75;;
38851;SDS011;24605;50.092;9.182;2022-11-25T10:14:50;10.23;;;1.98;;
38851;SDS011;24605;50.092;9.182;2022-11-25T10:17:22;9.00;;;2.53;;
38851;SDS011;24605;50.092;9.182;2022-11-25T10:20:00;7.80;;;2.30;;
38851;SDS011;24605;50.092;9.182;2022-11-25T10:22:31;6.60;;;1.75;;
38851;SDS011;24605;50.092;9.182;2022-11-25T10:25:00;7.85;;;2.08;;
38851;SDS011;24605;50.092;9.182;2022-11-25T10:27:35;11.90;;;2.63;;
38851;SDS011;24605;50.092;9.182;2022-11-25T10:32:39;8.32;;;2.30;;
38851;SDS011;24605;50.092;9.182;2022-11-25T10:35:13;9.07;;;1.98;;
38851;SDS011;24605;50.092;9.182;2022-11-25T10:37:45;10.18;;;2.80;;
38851;SDS011;24605;50.092;9.182;2022-11-25T10:40:19;12.93;;;3.05;;
38851;SDS011;24605;50.092;9.182;2022-11-25T10:42:46;10.23;;;3.00;;
38851;SDS011;24605;50.092;9.182;2022-11-25T10:45:12;9.93;;;2.70;;
38851;SDS011;24605;50.092;9.182;2022-11-25T10:47:47;9.27;;;2.47;;
38851;SDS011;24605;50.092;9.182;2022-11-25T10:50:28;10.73;;;3.10;;
38851;SDS011;24605;50.092;9.182;2022-11-25T10:53:01;9.07;;;3.28;;
38851;SDS011;24605;50.092;9.182;2022-11-25T10:55:35;13.20;;;4.07;;
38851;SDS011;24605;50.092;9.182;2022-11-25T11:00:52;11.55;;;3.83;;
38851;SDS011;24605;50.092;9.182;2022-11-25T11:03:27;9.10;;;3.35;;
38851;SDS011;24605;50.092;9.182;2022-11-25T11:05:55;11.55;;;3.33;;
38851;SDS011;24605;50.092;9.182;2022-11-25T11:08:23;13.05;;;3.53;;
38851;SDS011;24605;50.092;9.182;2022-11-25T11:11:13;14.15;;;4.07;;
38851;SDS011;24605;50.092;9.182;2022-11-25T11:13:42;10.57;;;3.60;;
38851;SDS011;24605;50.092;9.182;2022-11-25T11:16:20;12.60;;;3.78;;
38851;SDS011;24605;50.092;9.182;2022-11-25T11:18:59;8.30;;;3.45;;
38851;SDS011;24605;50.092;9.182;2022-11-25T11:21:29;11.90;;;3.28;;
38851;SDS011;24605;50.092;9.182;2022-11-25T11:23:57;12.75;;;3.80;;
38851;SDS011;24605;50.092;9.182;2022-11-25T11:26:25;11.20;;;3.38;;
38851;SDS011;24605;50.092;9.182;2022-11-25T11:28:57;14.02;;;3.83;;
38851;SDS011;24605;50.092;9.182;2022-11-25T11:31:28;12.02;;;3.90;;
38851;SDS011;24605;50.092;9.182;2022-11-25T11:33:59;11.45;;;3.90;;
38851;SDS011;24605;50.092;9.182;2022-11-25T11:36:41;8.95;;;3.83;;
38851;SDS011;24605;50.092;9.182;2022-11-25T11:39:22;9.05;;;3.90;;
38851;SDS011;24605;50.092;9.182;2022-11-25T11:42:01;11.27;;;3.90;;
38851;SDS011;24605;50.092;9.182;2022-11-25T11:44:38;13.93;;;5.03;;
38851;SDS011;24605;50.092;9.182;2022-11-25T11:47:18;12.43;;;4.47;;
38851;SDS011;24605;50.092;9.182;2022-11-25T11:49:55;14.15;;;4.05;;
38851;SDS011;24605;50.092;9.182;2022-11-25T11:52:42;14.27;;;4.35;;
38851;SDS011;24605;50.092;9.182;2022-11-25T11:55:30;14.30;;;4.38;;
38851;SDS011;24605;50.092;9.182;2022-11-25T11:58:07;12.10;;;3.85;;
38851;SDS011;24605;50.092;9.182;2022-11-25T12:00:44;17.38;;;4.88;;
38851;SDS011;24605;50.092;9.182;2022-11-25T12:03:19;14.95;;;4.65;;
38851;SDS011;24605;50.092;9.182;2022-11-25T12:05:47;15.32;;;5.38;;
38851;SDS011;24605;50.092;9.182;2022-11-25T12:08:21;16.38;;;5.03;;
38851;SDS011;24605;50.092;9.182;2022-11-25T12:10:55;19.83;;;4.90;;
38851;SDS011;24605;50.092;9.182;2022-11-25T12:13:26;14.98;;;4.78;;
38851;SDS011;24605;50.092;9.182;2022-11-25T12:15:59;12.95;;;5.43;;
38851;SDS011;24605;50.092;9.182;2022-11-25T12:18:37;15.48;;;6.20;;
38851;SDS011;24605;50.092;9.182;2022-11-25T12:21:12;10.95;;;5.50;;
38851;SDS011;24605;50.092;9.182;2022-11-25T12:23:57;12.75;;;4.85;;
38851;SDS011;24605;50.092;9.182;2022-11-25T12:26:30;10.55;;;4.63;;
38851;SDS011;24605;50.092;9.182;2022-11-25T12:29:04;12.73;;;5.15;;
38851;SDS011;24605;50.092;9.182;2022-11-25T12:31:38;9.93;;;4.30;;
38851;SDS011;24605;50.092;9.182;2022-11-25T12:34:08;19.98;;;5.55;;
38851;SDS011;24605;50.092;9.182;2022-11-25T12:36:41;13.32;;;4.55;;
38851;SDS011;24605;50.092;9.182;2022-11-25T12:39:14;15.73;;;6.05;;
38851;SDS011;24605;50.092;9.182;2022-11-25T12:41:50;15.73;;;5.47;;
38851;SDS011;24605;50.092;9.182;2022-11-25T12:44:20;13.45;;;5.32;;
38851;SDS011;24605;50.092;9.182;2022-11-25T12:46:52;16.20;;;5.88;;
38851;SDS011;24605;50.092;9.182;2022-11-25T12:49:22;13.70;;;5.30;;
38851;SDS011;24605;50.092;9.182;2022-11-25T12:51:55;14.18;;;5.65;;
38851;SDS011;24605;50.092;9.182;2022-11-25T12:54:39;13.15;;;5.85;;
38851;SDS011;24605;50.092;9.182;2022-11-25T12:57:27;11.93;;;4.97;;
38851;SDS011;24605;50.092;9.182;2022-11-25T13:00:09;17.48;;;6.22;;
38851;SDS011;24605;50.092;9.182;2022-11-25T13:02:52;15.70;;;5.13;;
38851;SDS011;24605;50.092;9.182;2022-11-25T13:05:50;11.23;;;5.00;;
38851;SDS011;24605;50.092;9.182;2022-11-25T13:08:27;11.13;;;5.10;;
38851;SDS011;24605;50.092;9.182;2022-11-25T13:11:10;13.55;;;5.22;;
38851;SDS011;24605;50.092;9.182;2022-11-25T13:13:48;18.05;;;5.38;;
38851;SDS011;24605;50.092;9.182;2022-11-25T13:16:20;13.63;;;5.50;;
38851;SDS011;24605;50.092;9.182;2022-11-25T13:18:47;13.27;;;4.85;;
38851;SDS011;24605;50.092;9.182;2022-11-25T13:21:16;16.20;;;5.35;;
38851;SDS011;24605;50.092;9.182;2022-11-25T13:23:45;10.73;;;4.53;;
38851;SDS011;24605;50.092;9.182;2022-11-25T13:26:35;13.75;;;5.10;;
38851;SDS011;24605;50.092;9.182;2022-11-25T13:32:26;13.07;;;4.95;;
38851;SDS011;24605;50.092;9.182;2022-11-25T13:37:59;16.65;;;6.25;;
38851;SDS011;24605;50.092;9.182;2022-11-25T13:40:31;15.88;;;6.57;;
38851;SDS011;24605;50.092;9.182;2022-11-25T13:43:02;12.68;;;5.28;;
38851;SDS011;24605;50.092;9.182;2022-11-25T13:45:29;14.85;;;4.88;;
38851;SDS011;24605;50.092;9.182;2022-11-25T13:48:03;15.50;;;4.45;;
38851;SDS011;24605;50.092;9.182;2022-11-25T13:50:31;10.63;;;4.28;;
38851;SDS011;24605;50.092;9.182;2022-11-25T13:52:59;10.65;;;4.15;;
38851;SDS011;24605;50.092;9.182;2022-11-25T13:55:31;14.43;;;5.95;;
38851;SDS011;24605;50.092;9.182;2022-11-25T13:58:01;12.98;;;5.07;;
38851;SDS011;24605;50.092;9.182;2022-11-25T14:03:43;16.13;;;6.70;;
38851;SDS011;24605;50.092;9.182;2022-11-25T14:06:24;17.02;;;4.93;;
38851;SDS011;24605;50.092;9.182;2022-11-25T14:09:04;14.77;;;5.85;;
38851;SDS011;24605;50.092;9.182;2022-11-25T14:11:41;10.35;;;4.00;;
38851;SDS011;24605;50.092;9.182;2022-11-25T14:14:37;14.75;;;5.85;;
38851;SDS011;24605;50.092;9.182;2022-11-25T14:17:27;12.50;;;4.88;;
38851;SDS011;24605;50.092;9.182;2022-11-25T14:20:08;12.15;;;4.97;;
38851;SDS011;24605;50.092;9.182;2022-11-25T14:23:06;13.35;;;5.30;;
38851;SDS011;24605;50.092;9.182;2022-11-25T14:25:46;15.38;;;4.90;;
38851;SDS011;24605;50.092;9.182;2022-11-25T14:28:20;17.27;;;5.97;;
38851;SDS011;24605;50.092;9.182;2022-11-25T14:30:54;19.73;;;6.50;;
38851;SDS011;24605;50.092;9.182;2022-11-25T14:33:25;15.70;;;6.53;;
38851;SDS011;24605;50.092;9.182;2022-11-25T14:35:59;17.90;;;5.40;;
38851;SDS011;24605;50.092;9.182;2022-11-25T14:38:31;11.88;;;4.93;;
38851;SDS011;24605;50.092;9.182;2022-11-25T14:41:06;16.00;;;5.28;;
38851;SDS011;24605;50.092;9.182;2022-11-25T14:43:36;16.95;;;5.43;;
38851;SDS011;24605;50.092;9.182;2022-11-25T14:46:10;13.10;;;4.82;;
38851;SDS011;24605;50.092;9.182;2022-11-25T14:48:39;14.02;;;5.40;;
38851;SDS011;24605;50.092;9.182;2022-11-25T14:51:06;13.63;;;5.15;;
38851;SDS011;24605;50.092;9.182;2022-11-25T14:53:37;16.00;;;6.07;;
38851;SDS011;24605;50.092;9.182;2022-11-25T14:56:05;17.92;;;6.55;;
38851;SDS011;24605;50.092;9.182;2022-11-25T14:58:32;17.00;;;6.47;;
38851;SDS011;24605;50.092;9.182;2022-11-25T15:01:00;14.23;;;6.18;;
38851;SDS011;24605;50.092;9.182;2022-11-25T15:03:31;12.98;;;4.82;;
38851;SDS011;24605;50.092;9.182;2022-11-25T15:05:59;15.40;;;6.25;;
38851;SDS011;24605;50.092;9.182;2022-11-25T15:08:35;16.65;;;6.28;;
38851;SDS011;24605;50.092;9.182;2022-11-25T15:11:04;11.30;;;5.65;;